createdAt,value
2023-05-11T00:00:25.799Z,7.89
2023-05-11T00:02:53.015Z,7.88
2023-05-11T00:05:19.984Z,7.85
2023-05-11T00:07:46.832Z,7.83
2023-05-11T00:10:13.633Z,7.81
2023-05-11T00:12:40.445Z,7.79
2023-05-11T00:15:07.788Z,7.75
2023-05-11T00:17:34.842Z,7.72
2023-05-11T00:20:01.780Z,7.68
2023-05-11T00:22:28.850Z,7.62
2023-05-11T00:24:55.771Z,7.56
2023-05-11T00:27:22.656Z,7.48
2023-05-11T00:29:49.657Z,7.43
2023-05-11T00:32:16.569Z,7.47
2023-05-11T00:34:43.372Z,7.56
2023-05-11T00:37:10.216Z,7.62
2023-05-11T00:39:40.752Z,7.69
2023-05-11T00:42:07.726Z,7.72
2023-05-11T00:44:34.610Z,7.72
2023-05-11T00:47:01.781Z,7.71
2023-05-11T00:49:28.672Z,7.71
2023-05-11T00:51:57.998Z,7.71
2023-05-11T00:54:25.054Z,7.70
2023-05-11T00:56:51.993Z,7.68
2023-05-11T00:59:19.273Z,7.65
2023-05-11T01:01:46.180Z,7.62
2023-05-11T01:04:13.349Z,7.58
2023-05-11T01:06:52.051Z,7.54
2023-05-11T01:09:44.322Z,7.52
2023-05-11T01:12:16.180Z,7.51
2023-05-11T01:14:58.991Z,7.51
2023-05-11T01:17:38.336Z,7.51
2023-05-11T01:20:12.761Z,7.52
2023-05-11T01:22:58.231Z,7.52
2023-05-11T01:25:53.240Z,7.52
2023-05-11T01:28:55.703Z,7.52
2023-05-11T01:31:23.170Z,7.52
2023-05-11T01:33:54.374Z,7.53
2023-05-11T01:36:21.285Z,7.54
2023-05-11T01:38:48.209Z,7.55
2023-05-11T01:41:16.502Z,7.61
2023-05-11T01:43:44.856Z,7.71
2023-05-11T01:46:12.246Z,7.80
2023-05-11T01:48:41.308Z,7.86
2023-05-11T01:51:08.329Z,7.89
2023-05-11T01:53:37.205Z,7.91
2023-05-11T01:56:04.292Z,7.93
2023-05-11T01:58:31.167Z,7.94
2023-05-11T02:01:00.316Z,7.96
2023-05-11T02:03:27.580Z,8.05
2023-05-11T02:05:54.894Z,8.07
2023-05-11T02:08:21.892Z,8.05
2023-05-11T02:10:48.750Z,8.02
2023-05-11T02:13:16.196Z,8.02
2023-05-11T02:15:43.203Z,8.03
2023-05-11T02:18:13.298Z,8.03
2023-05-11T02:20:42.334Z,8.05
2023-05-11T02:23:09.707Z,8.06
2023-05-11T02:25:40.863Z,8.08
2023-05-11T02:28:08.623Z,8.08
2023-05-11T02:30:39.565Z,8.07
2023-05-11T02:33:07.264Z,8.06
2023-05-11T02:35:38.464Z,8.05
2023-05-11T02:38:05.688Z,8.06
2023-05-11T02:40:34.821Z,8.09
2023-05-11T02:43:09.400Z,8.12
2023-05-11T02:45:36.704Z,8.12
2023-05-11T02:48:07.698Z,8.14
2023-05-11T02:50:37.482Z,8.19
2023-05-11T02:53:07.750Z,8.29
2023-05-11T02:55:34.968Z,8.43
2023-05-11T02:58:01.833Z,8.55
2023-05-11T03:00:29.167Z,8.67
2023-05-11T03:02:56.390Z,8.77
2023-05-11T03:05:24.540Z,8.85
2023-05-11T03:07:52.413Z,8.91
2023-05-11T03:10:19.592Z,8.93
2023-05-11T03:12:46.813Z,8.95
2023-05-11T03:15:14.488Z,8.96
2023-05-11T03:17:41.852Z,8.97
2023-05-11T03:20:09.136Z,8.99
2023-05-11T03:22:36.260Z,8.99
2023-05-11T03:25:03.497Z,9.00
2023-05-11T03:27:30.574Z,9.03
2023-05-11T03:29:57.895Z,9.06
2023-05-11T03:32:25.233Z,9.09
2023-05-11T03:34:52.605Z,9.14
2023-05-11T03:37:19.715Z,9.20
2023-05-11T03:39:48.998Z,9.25
2023-05-11T03:42:16.048Z,9.29
2023-05-11T03:44:44.127Z,9.32
2023-05-11T03:47:10.969Z,9.33
2023-05-11T03:49:38.292Z,9.30
2023-05-11T03:52:05.796Z,9.26
2023-05-11T03:54:32.686Z,9.23
2023-05-11T03:56:59.526Z,9.18
2023-05-11T03:59:26.576Z,9.13
2023-05-11T04:01:54.040Z,9.10
2023-05-11T04:04:21.511Z,9.14
2023-05-11T04:06:48.436Z,9.21
2023-05-11T04:09:21.235Z,9.26
2023-05-11T04:11:48.154Z,9.27
2023-05-11T04:14:15.012Z,9.26
2023-05-11T04:16:42.509Z,9.25
2023-05-11T04:19:09.415Z,9.27
2023-05-11T04:21:36.281Z,9.32
2023-05-11T04:24:03.581Z,9.37
2023-05-11T04:26:30.523Z,9.44
2023-05-11T04:28:57.385Z,9.55
2023-05-11T04:31:24.336Z,9.70
2023-05-11T04:33:51.171Z,9.89
2023-05-11T04:36:18.342Z,10.08
2023-05-11T04:38:45.792Z,10.25
2023-05-11T04:41:14.021Z,10.39
2023-05-11T04:43:41.209Z,10.51
2023-05-11T04:46:09.258Z,10.63
2023-05-11T04:48:36.252Z,10.73
2023-05-11T04:51:04.859Z,10.81
2023-05-11T04:53:32.339Z,10.89
2023-05-11T04:55:59.340Z,10.98
2023-05-11T04:58:26.591Z,11.07
2023-05-11T05:00:53.547Z,11.13
2023-05-11T05:03:20.945Z,11.17
2023-05-11T05:05:48.950Z,11.21
2023-05-11T05:08:15.992Z,11.25
2023-05-11T05:10:42.947Z,11.32
2023-05-11T05:13:09.799Z,11.38
2023-05-11T05:15:36.728Z,11.41
2023-05-11T05:18:03.678Z,11.46
2023-05-11T05:20:31.471Z,11.49
2023-05-11T05:22:59.155Z,11.50
2023-05-11T05:25:25.924Z,11.53
2023-05-11T05:27:52.898Z,11.58
2023-05-11T05:30:20.082Z,11.62
2023-05-11T05:32:47.998Z,11.66
2023-05-11T05:35:14.980Z,11.71
2023-05-11T05:37:42.860Z,11.76
2023-05-11T05:40:10.392Z,11.79
2023-05-11T05:42:42.152Z,11.83
2023-05-11T05:45:14.609Z,11.88
2023-05-11T05:47:42.000Z,11.95
2023-05-11T05:50:09.566Z,12.01
2023-05-11T05:52:36.495Z,12.07
2023-05-11T05:55:03.646Z,12.10
2023-05-11T05:57:30.879Z,12.14
2023-05-11T05:59:58.138Z,12.21
2023-05-11T06:02:25.142Z,12.32
2023-05-11T06:04:52.097Z,12.45
2023-05-11T06:07:19.281Z,12.56
2023-05-11T06:09:46.157Z,12.66
2023-05-11T06:12:13.098Z,12.74
2023-05-11T06:14:42.882Z,12.84
2023-05-11T06:17:09.838Z,12.92
2023-05-11T06:19:37.082Z,12.98
2023-05-11T06:22:06.493Z,13.06
2023-05-11T06:24:34.350Z,13.16
2023-05-11T06:27:01.806Z,13.26
2023-05-11T06:29:30.364Z,13.35
2023-05-11T06:31:58.931Z,13.45
2023-05-11T06:34:26.028Z,13.55
2023-05-11T06:36:52.972Z,13.62
2023-05-11T06:39:21.757Z,13.66
2023-05-11T06:41:51.492Z,13.70
2023-05-11T06:44:18.436Z,13.75
2023-05-11T06:46:45.438Z,13.82
2023-05-11T06:49:12.250Z,13.88
2023-05-11T06:51:39.114Z,13.92
2023-05-11T06:54:06.229Z,13.97
2023-05-11T06:56:35.093Z,14.04
2023-05-11T06:59:02.758Z,14.06
2023-05-11T07:01:29.791Z,14.14
2023-05-11T07:03:56.750Z,14.22
2023-05-11T07:06:23.605Z,14.30
2023-05-11T07:08:50.841Z,14.38
2023-05-11T07:11:19.121Z,14.43
2023-05-11T07:13:46.062Z,14.48
2023-05-11T07:16:13.157Z,14.53
2023-05-11T07:18:40.089Z,14.57
2023-05-11T07:21:07.290Z,14.63
2023-05-11T07:23:34.256Z,14.71
2023-05-11T07:26:01.906Z,14.78
2023-05-11T07:28:28.863Z,14.90
2023-05-11T07:30:56.016Z,15.01
2023-05-11T07:33:22.828Z,15.09
2023-05-11T07:35:49.809Z,15.13
2023-05-11T07:38:18.337Z,15.13
2023-05-11T07:40:45.121Z,15.13
2023-05-11T07:43:12.122Z,15.21
2023-05-11T07:45:39.737Z,15.30
2023-05-11T07:48:06.787Z,15.40
2023-05-11T07:50:33.832Z,15.50
2023-05-11T07:53:00.778Z,15.57
2023-05-11T07:55:30.676Z,15.61
2023-05-11T07:57:57.806Z,15.64
2023-05-11T08:00:24.869Z,15.69
2023-05-11T08:02:51.914Z,15.78
2023-05-11T08:05:19.898Z,15.92
2023-05-11T08:07:47.472Z,16.06
2023-05-11T08:10:14.314Z,16.14
2023-05-11T08:12:41.221Z,16.19
2023-05-11T08:15:09.072Z,16.25
2023-05-11T08:17:36.700Z,16.34
2023-05-11T08:20:05.018Z,16.42
2023-05-11T08:22:32.225Z,16.49
2023-05-11T08:24:59.085Z,16.51
2023-05-11T08:27:25.983Z,16.56
2023-05-11T08:29:52.793Z,16.67
2023-05-11T08:32:19.604Z,16.81
2023-05-11T08:34:46.936Z,16.92
2023-05-11T08:37:13.892Z,16.99
2023-05-11T08:39:47.385Z,16.97
2023-05-11T08:42:18.574Z,16.92
2023-05-11T08:44:45.710Z,16.86
2023-05-11T08:49:42.469Z,16.76
2023-05-11T08:52:09.254Z,16.67
2023-05-11T08:54:36.252Z,16.63
2023-05-11T08:57:03.181Z,16.61
2023-05-11T08:59:30.534Z,16.61
2023-05-11T09:01:57.396Z,16.60
2023-05-11T09:04:24.422Z,16.58
2023-05-11T09:06:51.370Z,16.58
2023-05-11T09:09:18.425Z,16.61
2023-05-11T09:11:45.980Z,16.66
2023-05-11T09:14:12.907Z,16.70
2023-05-11T09:16:39.858Z,16.76
2023-05-11T09:19:07.910Z,16.81
2023-05-11T09:21:34.988Z,16.87
2023-05-11T09:24:02.494Z,16.89
2023-05-11T09:26:30.195Z,16.90
2023-05-11T09:29:03.889Z,16.96
2023-05-11T09:31:44.190Z,16.98
2023-05-11T09:46:24.557Z,17.20
2023-05-11T09:48:58.851Z,17.76
2023-05-11T09:51:33.165Z,17.86
2023-05-11T09:54:01.268Z,17.93
2023-05-11T09:56:50.856Z,18.02
2023-05-11T09:59:36.597Z,18.12
2023-05-11T10:02:23.954Z,18.15
2023-05-11T10:04:51.718Z,18.05
2023-05-11T10:07:32.457Z,17.93
2023-05-11T10:10:01.603Z,17.80
2023-05-11T10:12:28.906Z,17.68
2023-05-11T10:14:59.033Z,17.61
2023-05-11T10:17:26.091Z,17.57
2023-05-11T10:19:54.655Z,17.53
2023-05-11T10:22:21.629Z,17.51
2023-05-11T10:24:48.750Z,17.46
2023-05-11T10:27:15.699Z,17.42
2023-05-11T10:29:42.595Z,17.41
2023-05-11T10:32:09.828Z,17.43
2023-05-11T10:34:36.938Z,17.47
2023-05-11T10:37:03.899Z,17.54
2023-05-11T10:39:30.854Z,17.61
2023-05-11T10:42:16.929Z,17.67
2023-05-11T10:44:50.542Z,17.73
2023-05-11T10:47:52.555Z,17.84
2023-05-11T10:50:44.015Z,17.97
2023-05-11T10:53:49.758Z,18.09
2023-05-11T10:56:35.560Z,18.23
2023-05-11T10:59:22.683Z,18.45
2023-05-11T11:01:52.361Z,18.65
2023-05-11T11:04:20.596Z,18.79
2023-05-11T11:06:47.624Z,18.91
2023-05-11T11:09:15.916Z,19.00
2023-05-11T11:11:48.188Z,18.98
2023-05-11T11:14:15.807Z,18.89
2023-05-11T11:17:21.269Z,18.90
2023-05-11T11:19:48.200Z,18.96
2023-05-11T11:22:41.866Z,18.90
2023-05-11T11:25:09.761Z,18.76
2023-05-11T11:27:46.313Z,18.70
2023-05-11T11:30:18.335Z,18.76
2023-05-11T11:32:48.427Z,18.92
2023-05-11T11:35:41.449Z,19.10
2023-05-11T11:38:13.074Z,19.32
2023-05-11T11:40:50.660Z,19.51
2023-05-11T11:43:26.901Z,19.53
2023-05-11T11:45:57.445Z,19.48
2023-05-11T11:48:29.578Z,19.43
2023-05-11T11:51:07.139Z,19.39
2023-05-11T11:53:44.666Z,19.34
2023-05-11T11:56:14.658Z,19.36
2023-05-11T11:58:41.645Z,19.41
2023-05-11T12:01:29.890Z,19.48
2023-05-11T12:04:06.274Z,19.64
2023-05-11T12:06:37.287Z,19.74
2023-05-11T12:09:06.999Z,19.78
2023-05-11T12:11:34.247Z,19.74
2023-05-11T12:14:01.558Z,19.72
2023-05-11T12:16:28.428Z,19.79
2023-05-11T12:19:01.061Z,19.92
2023-05-11T12:21:31.906Z,19.97
2023-05-11T12:24:05.776Z,19.94
2023-05-11T12:26:33.380Z,19.88
2023-05-11T12:29:11.265Z,19.87
2023-05-11T12:31:42.963Z,19.76
2023-05-11T12:34:20.452Z,19.61
2023-05-11T12:36:48.385Z,19.57
2023-05-11T12:39:26.402Z,19.50
2023-05-11T12:41:54.848Z,19.41
2023-05-11T12:44:23.729Z,19.31
2023-05-11T12:46:51.083Z,19.20
2023-05-11T12:49:26.853Z,19.15
2023-05-11T12:52:01.094Z,19.23
2023-05-11T12:54:32.209Z,19.41
2023-05-11T12:57:00.207Z,19.63
2023-05-11T12:59:31.552Z,19.83
2023-05-11T13:02:13.193Z,20.02
2023-05-11T13:04:42.308Z,20.25
2023-05-11T13:07:10.231Z,20.48
2023-05-11T13:09:38.724Z,20.62
2023-05-11T13:12:18.406Z,20.72
2023-05-11T13:14:47.107Z,20.88
2023-05-11T13:17:15.574Z,20.93
2023-05-11T13:19:43.668Z,20.82
2023-05-11T13:22:11.509Z,20.62
2023-05-11T13:24:38.451Z,20.48
2023-05-11T13:27:05.820Z,20.43
2023-05-11T13:29:33.264Z,20.29
2023-05-11T13:32:00.478Z,20.11
2023-05-11T13:34:27.469Z,19.98
2023-05-11T13:36:54.601Z,19.86
2023-05-11T13:39:21.876Z,19.83
2023-05-11T13:41:48.682Z,19.91
2023-05-11T13:44:15.676Z,20.03
2023-05-11T13:46:42.504Z,20.12
2023-05-11T13:49:09.447Z,20.20
2023-05-11T13:51:36.451Z,20.58
2023-05-11T13:54:03.509Z,21.46
2023-05-11T13:56:30.401Z,22.66
2023-05-11T13:58:59.900Z,24.23
2023-05-11T14:01:27.712Z,25.78
2023-05-11T14:03:55.355Z,27.14
2023-05-11T14:06:23.805Z,28.45
2023-05-11T14:08:51.157Z,29.56
2023-05-11T14:11:17.978Z,29.99
2023-05-11T14:13:45.007Z,30.14
2023-05-11T14:16:12.201Z,30.14
2023-05-11T14:18:39.313Z,29.54
2023-05-11T14:21:06.733Z,28.90
2023-05-11T14:23:34.061Z,28.87
2023-05-11T14:26:01.424Z,29.48
2023-05-11T14:28:28.280Z,30.24
2023-05-11T14:30:55.229Z,30.94
2023-05-11T14:33:22.163Z,31.59
2023-05-11T14:35:50.126Z,32.31
2023-05-11T14:38:17.292Z,33.16
2023-05-11T14:40:44.168Z,33.90
2023-05-11T14:43:11.269Z,34.08
2023-05-11T14:45:38.152Z,34.34
2023-05-11T14:48:05.448Z,34.80
2023-05-11T14:50:32.526Z,35.24
2023-05-11T14:52:59.405Z,35.54
2023-05-11T14:55:26.290Z,35.89
2023-05-11T14:57:53.301Z,36.05
2023-05-11T15:00:20.472Z,36.00
2023-05-11T15:02:47.523Z,35.94
2023-05-11T15:05:14.596Z,36.08
2023-05-11T15:07:41.543Z,36.18
2023-05-11T15:10:08.608Z,35.99
2023-05-11T15:12:35.948Z,35.69
2023-05-11T15:15:03.607Z,35.30
2023-05-11T15:17:30.453Z,34.79
2023-05-11T15:19:57.396Z,34.32
2023-05-11T15:22:24.342Z,34.20
2023-05-11T15:24:51.286Z,34.33
2023-05-11T15:27:18.138Z,34.54
2023-05-11T15:29:45.077Z,34.71
2023-05-11T15:32:13.250Z,34.80
2023-05-11T15:34:54.893Z,34.86
2023-05-11T15:37:25.885Z,34.91
2023-05-11T15:39:52.833Z,34.93
2023-05-11T15:42:19.704Z,34.86
2023-05-11T15:44:46.518Z,34.72
2023-05-11T15:47:13.469Z,34.53
2023-05-11T15:49:40.673Z,34.28
2023-05-11T15:52:07.590Z,33.87
2023-05-11T15:54:35.997Z,33.45
2023-05-11T15:57:03.396Z,33.24
2023-05-11T15:59:33.192Z,33.05
2023-05-11T16:02:00.339Z,32.93
2023-05-11T16:04:27.511Z,32.94
2023-05-11T16:06:56.761Z,32.99
2023-05-11T16:09:25.037Z,32.92
2023-05-11T16:11:51.859Z,32.82
2023-05-11T16:14:18.695Z,32.69
2023-05-11T16:16:45.904Z,32.53
2023-05-11T16:19:12.895Z,32.38
2023-05-11T16:21:39.917Z,32.23
2023-05-11T16:24:07.268Z,31.92
2023-05-11T16:26:34.139Z,31.37
2023-05-11T16:29:00.970Z,30.51
2023-05-11T16:31:27.876Z,29.58
2023-05-11T16:33:54.853Z,28.71
2023-05-11T16:36:21.794Z,27.91
2023-05-11T16:38:48.953Z,27.18
2023-05-11T16:41:16.011Z,26.55
2023-05-11T16:43:43.106Z,26.04
2023-05-11T16:46:10.068Z,25.61
2023-05-11T16:48:37.244Z,25.13
2023-05-11T16:51:04.309Z,24.75
2023-05-11T16:53:31.908Z,24.42
2023-05-11T16:55:58.762Z,24.12
2023-05-11T16:58:25.660Z,23.82
2023-05-11T17:00:52.787Z,23.56
2023-05-11T17:03:20.164Z,23.31
2023-05-11T17:05:47.197Z,23.06
2023-05-11T17:08:14.082Z,22.80
2023-05-11T17:10:41.617Z,22.55
2023-05-11T17:13:08.430Z,22.27
2023-05-11T17:15:35.446Z,22.05
2023-05-11T17:18:02.333Z,21.84
2023-05-11T17:20:29.212Z,21.65
2023-05-11T17:22:56.233Z,21.46
2023-05-11T17:25:23.306Z,21.26
2023-05-11T17:27:50.362Z,21.15
2023-05-11T17:30:18.036Z,21.02
2023-05-11T17:32:45.635Z,20.86
2023-05-11T17:35:13.214Z,20.72
2023-05-11T17:37:40.366Z,20.58
2023-05-11T17:40:08.038Z,20.42
2023-05-11T17:42:35.032Z,20.23
2023-05-11T17:45:02.432Z,20.03
2023-05-11T17:47:29.329Z,19.87
2023-05-11T17:49:56.523Z,19.75
2023-05-11T17:52:24.818Z,19.55
2023-05-11T17:54:51.921Z,19.35
2023-05-11T17:57:19.308Z,19.16
2023-05-11T17:59:47.693Z,18.95
2023-05-11T18:02:14.729Z,18.76
2023-05-11T18:04:42.213Z,18.61
2023-05-11T18:07:09.449Z,18.45
2023-05-11T18:09:36.387Z,18.30
2023-05-11T18:12:04.576Z,18.18
2023-05-11T18:14:31.809Z,18.05
2023-05-11T18:16:58.756Z,17.95
2023-05-11T18:19:27.037Z,17.87
2023-05-11T18:21:53.935Z,17.78
2023-05-11T18:24:20.772Z,17.68
2023-05-11T18:26:47.684Z,17.54
2023-05-11T18:29:19.254Z,17.39
2023-05-11T18:31:46.693Z,17.27
2023-05-11T18:34:13.632Z,17.17
2023-05-11T18:36:40.764Z,17.05
2023-05-11T18:39:07.786Z,16.94
2023-05-11T18:41:34.732Z,16.79
2023-05-11T18:44:01.935Z,16.63
2023-05-11T18:46:29.138Z,16.50
2023-05-11T18:48:56.089Z,16.39
2023-05-11T18:51:23.786Z,16.27
2023-05-11T18:53:50.878Z,16.16
2023-05-11T18:56:17.828Z,16.05
2023-05-11T18:58:45.438Z,15.92
2023-05-11T19:01:12.489Z,15.79
2023-05-11T19:03:39.626Z,15.70
2023-05-11T19:06:07.789Z,15.63
2023-05-11T19:08:34.773Z,15.55
2023-05-11T19:11:07.003Z,15.47
2023-05-11T19:16:16.885Z,15.37
2023-05-11T19:18:53.851Z,15.33
2023-05-11T19:24:02.780Z,15.19
2023-05-11T19:29:26.001Z,14.93
2023-05-11T19:34:36.508Z,14.64
2023-05-11T19:37:10.388Z,14.54
2023-05-11T19:39:37.204Z,14.48
2023-05-11T19:42:06.902Z,14.43
2023-05-11T19:44:36.578Z,14.36
2023-05-11T19:49:45.485Z,14.24
2023-05-11T19:52:15.620Z,14.20
2023-05-11T19:57:42.061Z,14.06
2023-05-11T20:00:15.865Z,13.96
2023-05-11T20:02:43.014Z,13.89
2023-05-11T20:05:10.394Z,13.85
2023-05-11T20:07:37.281Z,13.80
2023-05-11T20:10:04.372Z,13.72
2023-05-11T20:12:31.250Z,13.67
2023-05-11T20:14:58.522Z,13.61
2023-05-11T20:17:25.522Z,13.56
2023-05-11T20:19:52.676Z,13.51
2023-05-11T20:22:21.210Z,13.46
2023-05-11T20:24:48.272Z,13.40
2023-05-11T20:27:18.275Z,13.36
2023-05-11T20:29:45.122Z,13.34
2023-05-11T20:32:12.675Z,13.31
2023-05-11T20:34:39.598Z,13.23
2023-05-11T20:37:06.754Z,13.14
2023-05-11T20:39:33.707Z,13.08
2023-05-11T20:42:00.736Z,13.03
2023-05-11T20:44:27.736Z,12.98
2023-05-11T20:46:54.850Z,12.95
2023-05-11T20:49:37.559Z,12.92
2023-05-11T20:52:07.470Z,12.91
2023-05-11T20:54:35.910Z,12.89
2023-05-11T20:57:03.236Z,12.88
2023-05-11T21:02:01.857Z,12.86
2023-05-11T21:04:31.326Z,12.83
2023-05-11T21:06:58.271Z,12.79
2023-05-11T21:09:25.665Z,12.75
2023-05-11T21:11:52.780Z,12.70
2023-05-11T21:14:20.487Z,12.64
2023-05-11T21:16:48.138Z,12.59
2023-05-11T21:19:16.808Z,12.52
2023-05-11T21:21:44.102Z,12.44
2023-05-11T21:24:11.169Z,12.35
2023-05-11T21:26:38.518Z,12.29
2023-05-11T21:29:05.800Z,12.24
2023-05-11T21:31:32.808Z,12.19
2023-05-11T21:33:59.706Z,12.14
2023-05-11T21:36:26.585Z,12.07
2023-05-11T21:38:53.587Z,12.00
2023-05-11T21:41:20.500Z,11.95
2023-05-11T21:43:47.354Z,11.93
2023-05-11T21:46:14.493Z,11.89
2023-05-11T21:48:41.533Z,11.84
2023-05-11T21:53:37.383Z,11.57
2023-05-11T21:56:04.761Z,11.67
2023-05-11T21:58:31.786Z,11.62
2023-05-11T22:00:58.889Z,11.59
2023-05-11T22:03:28.737Z,11.56
2023-05-11T22:05:56.117Z,11.55
2023-05-11T22:08:23.338Z,11.53
2023-05-11T22:10:50.415Z,11.51
2023-05-11T22:13:17.366Z,11.48
2023-05-11T22:15:44.218Z,11.46
2023-05-11T22:18:11.164Z,11.42
2023-05-11T22:20:38.074Z,11.39
2023-05-11T22:23:05.140Z,11.36
2023-05-11T22:25:32.269Z,11.33
2023-05-11T22:27:59.406Z,11.31
2023-05-11T22:30:26.406Z,11.27
2023-05-11T22:32:53.645Z,11.23
2023-05-11T22:35:20.670Z,11.18
2023-05-11T22:37:47.656Z,11.13
2023-05-11T22:40:14.449Z,11.09
2023-05-11T22:42:41.854Z,11.05
2023-05-11T22:45:09.650Z,11.00
2023-05-11T22:47:36.606Z,10.97
2023-05-11T22:50:03.911Z,10.94
2023-05-11T22:52:30.799Z,10.92
2023-05-11T22:54:59.042Z,10.90
2023-05-11T22:57:26.689Z,10.85
2023-05-11T22:59:53.658Z,10.78
2023-05-11T23:02:21.194Z,10.69
2023-05-11T23:04:52.455Z,10.62
2023-05-11T23:07:19.783Z,10.56
2023-05-11T23:09:47.032Z,10.51
2023-05-11T23:12:13.931Z,10.46
2023-05-11T23:14:41.968Z,10.43
2023-05-11T23:17:09.161Z,10.38
2023-05-11T23:19:36.178Z,10.34
2023-05-11T23:22:03.173Z,10.28
2023-05-11T23:24:30.119Z,10.22
2023-05-11T23:26:57.107Z,10.16
2023-05-11T23:29:24.519Z,10.07
2023-05-11T23:31:51.740Z,10.00
2023-05-11T23:34:19.083Z,9.96
2023-05-11T23:36:46.731Z,9.94
2023-05-11T23:39:13.888Z,9.92
2023-05-11T23:41:40.911Z,9.90
2023-05-11T23:44:08.048Z,9.89
2023-05-11T23:46:35.953Z,9.87
2023-05-11T23:49:03.274Z,9.85
2023-05-11T23:51:30.125Z,9.85
2023-05-11T23:53:56.913Z,9.85
2023-05-11T23:56:23.720Z,9.85
2023-05-11T23:58:50.801Z,9.84
